createdAt,value
2022-10-02T00:01:28.711Z,12.90
2022-10-02T00:03:58.520Z,11.90
2022-10-02T00:06:33.647Z,13.10
2022-10-02T00:09:04.554Z,11.87
2022-10-02T00:11:43.674Z,13.20
2022-10-02T00:14:16.512Z,11.73
2022-10-02T00:16:48.685Z,12.83
2022-10-02T00:19:19.392Z,13.63
2022-10-02T00:22:00.439Z,13.30
2022-10-02T00:24:37.099Z,12.70
2022-10-02T00:27:15.646Z,11.03
2022-10-02T00:29:50.749Z,11.77
2022-10-02T00:32:29.398Z,13.27
2022-10-02T00:35:24.692Z,11.73
2022-10-02T00:38:00.073Z,11.03
2022-10-02T00:40:45.539Z,12.23
2022-10-02T00:43:26.101Z,11.47
2022-10-02T00:46:24.421Z,12.50
2022-10-02T00:49:06.280Z,11.57
2022-10-02T00:51:48.991Z,10.93
2022-10-02T00:54:46.321Z,12.73
2022-10-02T00:57:25.906Z,12.77
2022-10-02T01:00:04.238Z,10.17
2022-10-02T01:02:45.851Z,11.23
2022-10-02T01:05:15.517Z,10.67
2022-10-02T01:07:47.766Z,11.40
2022-10-02T01:10:16.530Z,11.27
2022-10-02T01:12:46.631Z,10.43
2022-10-02T01:15:16.542Z,11.83
2022-10-02T01:17:46.369Z,10.60
2022-10-02T01:20:19.323Z,10.80
2022-10-02T01:22:53.525Z,10.77
2022-10-02T01:25:23.493Z,12.20
2022-10-02T01:27:53.842Z,10.27
2022-10-02T01:30:23.064Z,12.13
2022-10-02T01:32:54.424Z,11.27
2022-10-02T01:35:27.460Z,11.77
2022-10-02T01:37:57.061Z,11.43
2022-10-02T01:40:28.769Z,12.07
2022-10-02T01:43:00.885Z,11.17
2022-10-02T01:45:42.453Z,12.90
2022-10-02T01:48:16.630Z,10.00
2022-10-02T01:50:55.461Z,10.93
2022-10-02T01:53:30.940Z,11.33
2022-10-02T01:56:10.034Z,10.50
2022-10-02T01:58:46.612Z,12.03
2022-10-02T02:01:24.065Z,11.57
2022-10-02T02:04:01.092Z,9.83
2022-10-02T02:06:34.966Z,12.23
2022-10-02T02:09:10.679Z,9.83
2022-10-02T02:11:45.950Z,12.00
2022-10-02T02:14:17.926Z,10.47
2022-10-02T02:16:49.730Z,10.97
2022-10-02T02:19:23.047Z,11.30
2022-10-02T02:21:55.150Z,11.70
2022-10-02T02:24:26.721Z,12.13
2022-10-02T02:27:01.811Z,10.83
2022-10-02T02:29:34.878Z,12.60
2022-10-02T02:32:08.041Z,11.33
2022-10-02T02:34:40.981Z,12.77
2022-10-02T02:37:16.672Z,11.37
2022-10-02T02:39:50.861Z,11.80
2022-10-02T02:42:26.168Z,11.10
2022-10-02T02:44:58.781Z,11.70
2022-10-02T02:47:30.231Z,11.10
2022-10-02T02:50:03.255Z,11.73
2022-10-02T02:52:35.263Z,12.77
2022-10-02T02:55:11.137Z,11.03
2022-10-02T02:57:46.587Z,12.40
2022-10-02T03:00:16.969Z,12.27
2022-10-02T03:02:45.526Z,12.23
2022-10-02T03:05:16.169Z,11.83
2022-10-02T03:07:51.926Z,12.33
2022-10-02T03:10:29.994Z,12.20
2022-10-02T03:13:09.049Z,12.10
2022-10-02T03:15:49.236Z,12.50
2022-10-02T03:18:42.322Z,13.50
2022-10-02T03:21:16.267Z,11.53
2022-10-02T03:23:57.413Z,12.50
2022-10-02T03:26:34.694Z,13.53
2022-10-02T03:29:09.542Z,11.63
2022-10-02T03:31:38.931Z,12.60
2022-10-02T03:34:08.088Z,12.50
2022-10-02T03:36:38.024Z,14.57
2022-10-02T03:39:25.740Z,12.17
2022-10-02T03:41:55.171Z,12.57
2022-10-02T03:44:25.284Z,12.70
2022-10-02T03:46:53.975Z,13.23
2022-10-02T03:49:22.622Z,13.27
2022-10-02T03:51:51.140Z,13.07
2022-10-02T03:54:22.383Z,13.77
2022-10-02T03:56:56.976Z,12.37
2022-10-02T03:59:38.301Z,11.97
2022-10-02T04:02:13.710Z,12.83
2022-10-02T04:04:48.908Z,12.80
2022-10-02T04:07:22.941Z,11.53
2022-10-02T04:09:57.347Z,12.33
2022-10-02T04:12:32.093Z,13.70
2022-10-02T04:15:07.867Z,12.67
2022-10-02T04:17:44.178Z,12.60
2022-10-02T04:20:18.141Z,12.43
2022-10-02T04:22:51.942Z,12.93
2022-10-02T04:25:23.997Z,12.53
2022-10-02T04:27:58.707Z,13.30
2022-10-02T04:30:30.164Z,12.00
2022-10-02T04:33:06.919Z,11.90
2022-10-02T04:35:43.683Z,13.77
2022-10-02T04:38:37.499Z,12.07
2022-10-02T04:41:21.606Z,12.30
2022-10-02T04:44:04.203Z,11.67
2022-10-02T04:47:02.491Z,13.57
2022-10-02T04:49:47.795Z,13.27
2022-10-02T04:52:32.809Z,12.33
2022-10-02T04:55:21.731Z,12.07
2022-10-02T04:58:22.009Z,11.80
2022-10-02T05:00:57.232Z,11.57
2022-10-02T05:03:39.052Z,12.17
2022-10-02T05:06:23.236Z,11.83
2022-10-02T05:09:13.239Z,11.97
2022-10-02T05:11:57.189Z,11.97
2022-10-02T05:14:52.304Z,13.27
2022-10-02T05:17:33.918Z,13.80
2022-10-02T05:20:20.719Z,12.70
2022-10-02T05:23:12.828Z,12.07
2022-10-02T05:26:05.223Z,12.93
2022-10-02T05:28:56.106Z,14.63
2022-10-02T05:31:42.358Z,13.10
2022-10-02T05:34:24.382Z,12.97
2022-10-02T05:37:17.484Z,12.93
2022-10-02T05:39:53.886Z,13.03
2022-10-02T05:42:30.632Z,12.07
2022-10-02T05:45:05.416Z,11.60
2022-10-02T05:47:39.530Z,12.83
2022-10-02T05:50:17.632Z,13.27
2022-10-02T05:52:55.356Z,13.30
2022-10-02T05:55:29.922Z,13.30
2022-10-02T05:58:04.342Z,13.67
2022-10-02T06:00:38.845Z,14.93
2022-10-02T06:03:16.384Z,11.60
2022-10-02T06:05:55.350Z,13.10
2022-10-02T06:08:31.576Z,13.43
2022-10-02T06:11:06.407Z,13.03
2022-10-02T06:13:41.856Z,13.63
2022-10-02T06:16:15.031Z,12.40
2022-10-02T06:18:49.167Z,13.47
2022-10-02T06:21:26.978Z,14.17
2022-10-02T06:23:59.484Z,13.00
2022-10-02T06:26:42.992Z,14.17
2022-10-02T06:29:21.574Z,12.33
2022-10-02T06:32:03.374Z,13.73
2022-10-02T06:34:32.018Z,13.10
2022-10-02T06:37:28.879Z,13.03
2022-10-02T06:40:24.119Z,13.10
2022-10-02T06:43:02.843Z,11.90
2022-10-02T06:45:40.309Z,14.23
2022-10-02T06:48:26.679Z,13.47
2022-10-02T06:51:01.483Z,14.67
2022-10-02T06:53:49.153Z,11.87
2022-10-02T06:56:32.937Z,11.50
2022-10-02T06:59:12.093Z,14.03
2022-10-02T07:01:50.293Z,13.87
2022-10-02T07:04:35.201Z,13.00
2022-10-02T07:07:24.010Z,12.70
2022-10-02T07:10:30.642Z,13.07
2022-10-02T07:13:21.322Z,12.73
2022-10-02T07:16:16.014Z,13.07
2022-10-02T07:19:02.800Z,12.83
2022-10-02T07:21:39.682Z,13.87
2022-10-02T07:24:25.792Z,12.27
2022-10-02T07:27:03.003Z,12.37
2022-10-02T07:29:46.003Z,13.90
2022-10-02T07:32:48.613Z,11.43
2022-10-02T07:35:35.694Z,12.40
2022-10-02T07:38:44.297Z,11.57
2022-10-02T07:41:37.310Z,12.90
2022-10-02T07:44:16.536Z,11.73
2022-10-02T07:46:56.285Z,12.93
2022-10-02T07:49:38.310Z,14.20
2022-10-02T07:52:20.320Z,12.07
2022-10-02T07:55:03.855Z,14.23
2022-10-02T07:57:39.913Z,12.33
2022-10-02T08:00:14.130Z,12.60
2022-10-02T08:02:51.349Z,14.07
2022-10-02T08:05:23.422Z,12.73
2022-10-02T08:07:56.307Z,14.87
2022-10-02T08:10:28.926Z,14.87
2022-10-02T08:13:08.054Z,13.70
2022-10-02T08:15:39.431Z,13.20
2022-10-02T08:18:33.768Z,11.97
2022-10-02T08:21:04.841Z,12.77
2022-10-02T08:23:40.805Z,13.27
2022-10-02T08:26:17.767Z,12.70
2022-10-02T08:28:54.216Z,15.40
2022-10-02T08:31:24.470Z,14.67
2022-10-02T08:33:55.679Z,12.57
2022-10-02T08:36:55.214Z,13.90
2022-10-02T08:39:44.269Z,14.03
2022-10-02T08:42:58.283Z,13.47
2022-10-02T08:46:03.174Z,15.93
2022-10-02T08:49:18.866Z,14.80
2022-10-02T08:52:22.881Z,13.20
2022-10-02T08:55:20.308Z,13.47
2022-10-02T08:58:20.169Z,13.23
2022-10-02T09:01:03.328Z,13.77
2022-10-02T09:04:02.900Z,13.27
2022-10-02T09:07:04.912Z,15.60
2022-10-02T09:10:15.796Z,14.13
2022-10-02T09:13:23.816Z,13.07
2022-10-02T09:16:06.628Z,14.50
2022-10-02T09:19:00.287Z,14.33
2022-10-02T09:21:48.036Z,13.33
2022-10-02T09:24:52.893Z,14.63
2022-10-02T09:27:45.467Z,13.67
2022-10-02T09:30:52.868Z,12.60
2022-10-02T09:33:53.054Z,14.37
2022-10-02T09:36:57.393Z,14.33
2022-10-02T09:39:58.697Z,15.47
2022-10-02T09:43:00.297Z,14.50
2022-10-02T09:45:44.216Z,15.63
2022-10-02T09:48:40.993Z,13.37
2022-10-02T09:51:57.294Z,13.93
2022-10-02T09:55:04.575Z,14.43
2022-10-02T09:58:24.134Z,14.73
2022-10-02T10:01:24.239Z,15.53
2022-10-02T10:04:13.011Z,14.70
2022-10-02T10:07:19.030Z,15.00
2022-10-02T10:10:31.885Z,15.63
2022-10-02T10:13:34.880Z,15.80
2022-10-02T10:16:51.207Z,16.43
2022-10-02T10:19:59.499Z,14.60
2022-10-02T10:23:02.106Z,15.53
2022-10-02T10:26:18.606Z,16.20
2022-10-02T10:29:13.451Z,15.10
2022-10-02T10:32:24.487Z,15.80
2022-10-02T10:35:32.265Z,14.87
2022-10-02T10:38:32.975Z,16.07
2022-10-02T10:41:27.069Z,15.57
2022-10-02T10:44:25.863Z,15.47
2022-10-02T10:47:20.403Z,15.93
2022-10-02T10:50:06.916Z,16.77
2022-10-02T10:53:11.853Z,14.90
2022-10-02T10:56:19.489Z,16.33
2022-10-02T10:59:10.600Z,16.63
2022-10-02T11:01:50.118Z,15.77
2022-10-02T11:04:44.869Z,15.53
2022-10-02T11:07:37.726Z,15.10
2022-10-02T11:10:33.626Z,17.00
2022-10-02T11:13:28.775Z,15.60
2022-10-02T11:16:35.276Z,17.23
2022-10-02T11:19:34.010Z,15.03
2022-10-02T11:22:41.824Z,17.47
2022-10-02T11:26:01.023Z,15.87
2022-10-02T11:29:08.169Z,15.40
2022-10-02T11:31:54.539Z,14.60
2022-10-02T11:34:51.211Z,16.97
2022-10-02T11:37:45.811Z,17.20
2022-10-02T11:40:35.773Z,16.07
2022-10-02T11:43:18.569Z,16.20
2022-10-02T11:46:21.626Z,16.47
2022-10-02T11:49:27.131Z,16.90
2022-10-02T11:52:18.478Z,17.47
2022-10-02T11:54:59.738Z,17.13
2022-10-02T11:57:47.998Z,16.00
2022-10-02T12:00:47.487Z,16.60
2022-10-02T12:03:23.232Z,16.37
2022-10-02T12:05:58.978Z,17.40
2022-10-02T12:08:41.287Z,15.47
2022-10-02T12:11:21.408Z,15.30
2022-10-02T12:14:03.905Z,18.77
2022-10-02T12:16:48.843Z,15.83
2022-10-02T12:19:27.358Z,16.90
2022-10-02T12:22:28.331Z,15.83
2022-10-02T12:25:29.639Z,16.57
2022-10-02T12:28:11.978Z,16.90
2022-10-02T12:30:45.685Z,14.67
2022-10-02T12:33:32.449Z,14.77
2022-10-02T12:36:34.895Z,16.20
2022-10-02T12:39:16.790Z,15.53
2022-10-02T12:42:06.709Z,15.30
2022-10-02T12:44:51.614Z,15.17
2022-10-02T12:48:04.067Z,15.67
2022-10-02T12:50:55.262Z,14.80
2022-10-02T12:54:00.679Z,16.07
2022-10-02T12:57:06.927Z,16.13
2022-10-02T12:59:44.925Z,16.67
2022-10-02T13:02:56.258Z,16.07
2022-10-02T13:05:54.031Z,16.07
2022-10-02T13:08:55.150Z,15.77
2022-10-02T13:11:37.242Z,16.07
2022-10-02T13:14:25.281Z,16.00
2022-10-02T13:17:14.269Z,16.63
2022-10-02T13:19:54.223Z,16.23
2022-10-02T13:22:31.526Z,16.30
2022-10-02T13:25:19.825Z,17.63
2022-10-02T13:27:59.928Z,16.50
2022-10-02T13:30:35.730Z,17.17
2022-10-02T13:33:21.724Z,15.20
2022-10-02T13:36:05.251Z,16.33
2022-10-02T13:38:55.255Z,15.57
2022-10-02T13:41:39.137Z,16.43
2022-10-02T13:44:20.221Z,15.80
2022-10-02T13:47:07.238Z,17.60
2022-10-02T13:49:57.449Z,16.80
2022-10-02T13:52:33.502Z,16.27
2022-10-02T13:55:16.139Z,16.93
2022-10-02T13:58:03.411Z,16.03
2022-10-02T14:00:59.205Z,15.83
2022-10-02T14:03:43.086Z,16.30
2022-10-02T14:06:20.897Z,15.50
2022-10-02T14:09:06.270Z,17.43
2022-10-02T14:11:51.967Z,15.60
2022-10-02T14:14:33.049Z,16.50
2022-10-02T14:17:12.932Z,17.77
2022-10-02T14:19:54.959Z,16.07
2022-10-02T14:22:38.673Z,17.33
2022-10-02T14:25:33.063Z,15.67
2022-10-02T14:28:32.121Z,15.80
2022-10-02T14:31:24.092Z,14.90
2022-10-02T14:34:28.094Z,17.73
2022-10-02T14:37:33.793Z,16.17
2022-10-02T14:40:10.061Z,16.27
2022-10-02T14:42:57.433Z,16.50
2022-10-02T14:45:57.322Z,19.40
2022-10-02T14:48:47.222Z,16.17
2022-10-02T14:51:51.835Z,16.90
2022-10-02T14:54:33.926Z,16.97
2022-10-02T14:57:19.307Z,15.77
2022-10-02T15:00:09.568Z,16.53
2022-10-02T15:03:12.468Z,17.97
2022-10-02T15:05:57.195Z,17.20
2022-10-02T15:08:32.202Z,17.33
2022-10-02T15:11:04.110Z,18.03
2022-10-02T15:13:43.533Z,16.40
2022-10-02T15:16:36.006Z,16.33
2022-10-02T15:19:13.817Z,17.20
2022-10-02T15:21:48.379Z,16.33
2022-10-02T15:24:33.417Z,16.43
2022-10-02T15:27:15.359Z,16.47
2022-10-02T15:30:04.616Z,16.43
2022-10-02T15:33:10.159Z,14.70
2022-10-02T15:35:55.274Z,15.03
2022-10-02T15:38:45.536Z,16.27
2022-10-02T15:41:38.631Z,15.23
2022-10-02T15:44:35.020Z,14.23
2022-10-02T15:47:15.798Z,15.47
2022-10-02T15:49:59.908Z,14.53
2022-10-02T15:52:38.411Z,14.30
2022-10-02T15:55:20.998Z,15.27
2022-10-02T15:58:14.194Z,15.57
2022-10-02T16:01:10.770Z,15.93
2022-10-02T16:03:46.030Z,14.87
2022-10-02T16:06:25.441Z,14.23
2022-10-02T16:09:18.588Z,15.43
2022-10-02T16:12:13.943Z,14.77
2022-10-02T16:14:53.528Z,14.07
2022-10-02T16:17:44.489Z,14.20
2022-10-02T16:20:33.932Z,14.10
2022-10-02T16:23:17.743Z,17.63
2022-10-02T16:26:02.431Z,16.93
2022-10-02T16:28:46.213Z,16.03
2022-10-02T16:31:46.897Z,14.17
2022-10-02T16:34:27.986Z,13.83
2022-10-02T16:37:00.849Z,15.87
2022-10-02T16:39:48.085Z,14.03
2022-10-02T16:42:35.953Z,14.23
2022-10-02T16:45:42.908Z,13.67
2022-10-02T16:48:16.208Z,13.47
2022-10-02T16:51:11.578Z,14.90
2022-10-02T16:53:48.208Z,13.93
2022-10-02T16:56:23.111Z,15.73
2022-10-02T16:59:01.536Z,15.07
2022-10-02T17:01:35.465Z,13.23
2022-10-02T17:04:33.531Z,15.33
2022-10-02T17:07:21.859Z,14.50
2022-10-02T17:09:56.551Z,14.13
2022-10-02T17:12:28.886Z,16.37
2022-10-02T17:15:06.209Z,14.77
2022-10-02T17:17:49.405Z,13.33
2022-10-02T17:20:24.925Z,13.00
2022-10-02T17:23:04.120Z,16.07
2022-10-02T17:25:43.142Z,12.93
2022-10-02T17:28:25.075Z,12.77
2022-10-02T17:31:28.511Z,14.70
2022-10-02T17:33:59.375Z,12.97
2022-10-02T17:36:36.569Z,13.33
2022-10-02T17:39:27.160Z,12.57
2022-10-02T17:42:03.467Z,13.83
2022-10-02T17:44:45.311Z,13.60
2022-10-02T17:47:45.060Z,12.97
2022-10-02T17:50:32.463Z,12.50
2022-10-02T17:53:29.105Z,12.83
2022-10-02T17:56:29.614Z,13.60
2022-10-02T17:59:18.414Z,14.13
2022-10-02T18:01:55.067Z,12.90
2022-10-02T18:04:33.573Z,12.80
2022-10-02T18:07:21.517Z,14.27
2022-10-02T18:10:01.196Z,14.80
2022-10-02T18:12:52.932Z,11.93
2022-10-02T18:15:41.015Z,12.40
2022-10-02T18:18:35.465Z,13.23
2022-10-02T18:21:23.712Z,12.77
2022-10-02T18:24:14.463Z,13.00
2022-10-02T18:27:05.899Z,10.53
2022-10-02T18:29:50.245Z,11.23
2022-10-02T18:32:41.838Z,12.23
2022-10-02T18:35:36.265Z,11.43
2022-10-02T18:38:18.664Z,12.33
2022-10-02T18:40:56.466Z,12.10
2022-10-02T18:43:52.500Z,12.63
2022-10-02T18:46:34.749Z,13.50
2022-10-02T18:49:31.507Z,11.20
2022-10-02T18:52:29.940Z,15.77
2022-10-02T18:55:13.164Z,13.60
2022-10-02T18:57:56.066Z,11.27
2022-10-02T19:00:27.349Z,13.03
2022-10-02T19:03:24.339Z,13.50
2022-10-02T19:05:57.159Z,12.43
2022-10-02T19:08:30.426Z,11.73
2022-10-02T19:10:59.135Z,13.10
2022-10-02T19:13:29.942Z,14.40
2022-10-02T19:16:01.346Z,14.00
2022-10-02T19:18:33.287Z,12.13
2022-10-02T19:21:08.515Z,12.90
2022-10-02T19:23:40.968Z,12.50
2022-10-02T19:26:19.732Z,15.63
2022-10-02T19:28:52.487Z,13.80
2022-10-02T19:31:25.070Z,12.37
2022-10-02T19:33:57.424Z,11.77
2022-10-02T19:36:30.417Z,13.17
2022-10-02T19:39:02.431Z,12.90
2022-10-02T19:41:35.824Z,13.13
2022-10-02T19:44:09.263Z,13.77
2022-10-02T19:46:44.551Z,13.00
2022-10-02T19:49:22.790Z,14.03
2022-10-02T19:51:53.115Z,14.50
2022-10-02T19:54:26.880Z,12.90
2022-10-02T19:57:01.047Z,12.77
2022-10-02T19:59:45.112Z,12.30
2022-10-02T20:02:17.719Z,11.43
2022-10-02T20:04:52.281Z,11.90
2022-10-02T20:07:22.993Z,12.20
2022-10-02T20:09:56.627Z,12.23
2022-10-02T20:12:30.773Z,11.67
2022-10-02T20:15:04.528Z,12.53
2022-10-02T20:17:32.624Z,12.13
2022-10-02T20:20:07.675Z,12.37
2022-10-02T20:22:41.361Z,10.87
2022-10-02T20:25:15.281Z,11.60
2022-10-02T20:27:47.593Z,11.07
2022-10-02T20:30:19.305Z,12.63
2022-10-02T20:32:52.984Z,11.63
2022-10-02T20:35:29.307Z,11.10
2022-10-02T20:38:02.691Z,14.77
2022-10-02T20:40:36.673Z,11.60
2022-10-02T20:43:09.947Z,12.17
2022-10-02T20:45:42.142Z,12.43
2022-10-02T20:49:06.784Z,10.43
2022-10-02T20:52:02.856Z,10.20
2022-10-02T20:54:44.726Z,11.43
2022-10-02T20:58:00.219Z,13.03
2022-10-02T21:00:34.415Z,11.63
2022-10-02T21:03:30.800Z,11.57
2022-10-02T21:06:39.870Z,11.57
2022-10-02T21:09:44.409Z,12.37
2022-10-02T21:12:50.810Z,12.03
2022-10-02T21:15:51.305Z,11.03
2022-10-02T21:18:44.601Z,11.77
2022-10-02T21:22:05.450Z,10.93
2022-10-02T21:25:20.881Z,11.37
2022-10-02T21:28:22.137Z,10.90
2022-10-02T21:31:01.197Z,10.40
2022-10-02T21:33:38.063Z,10.23
2022-10-02T21:36:10.984Z,11.17
2022-10-02T21:39:18.395Z,11.30
2022-10-02T21:42:35.277Z,9.80
2022-10-02T21:45:39.648Z,10.83
2022-10-02T21:48:48.405Z,12.47
2022-10-02T21:52:03.160Z,11.27
2022-10-02T21:54:59.862Z,9.47
2022-10-02T21:58:04.367Z,10.73
2022-10-02T22:00:38.042Z,10.27
2022-10-02T22:03:48.317Z,10.33
2022-10-02T22:06:41.123Z,10.00
2022-10-02T22:09:32.059Z,9.90
2022-10-02T22:12:16.887Z,12.43
2022-10-02T22:14:51.607Z,10.47
2022-10-02T22:17:30.105Z,9.67
2022-10-02T22:20:12.959Z,11.53
2022-10-02T22:23:10.817Z,9.77
2022-10-02T22:25:52.002Z,10.40
2022-10-02T22:28:32.380Z,9.90
2022-10-02T22:31:24.350Z,11.47
2022-10-02T22:34:03.502Z,10.03
2022-10-02T22:37:02.036Z,9.97
2022-10-02T22:39:34.998Z,10.83
2022-10-02T22:42:11.587Z,10.50
2022-10-02T22:44:46.712Z,10.50
2022-10-02T22:47:25.807Z,10.80
2022-10-02T22:49:58.373Z,10.30
2022-10-02T22:52:32.952Z,9.47
2022-10-02T22:55:07.893Z,10.73
2022-10-02T22:57:44.626Z,10.67
2022-10-02T23:00:18.555Z,10.80
2022-10-02T23:02:54.368Z,10.23
2022-10-02T23:05:28.612Z,10.30
2022-10-02T23:08:03.079Z,10.50
2022-10-02T23:10:39.690Z,9.67
2022-10-02T23:13:16.498Z,11.47
2022-10-02T23:15:54.763Z,9.67
2022-10-02T23:18:39.711Z,9.47
2022-10-02T23:21:29.440Z,11.73
2022-10-02T23:24:08.255Z,9.67
2022-10-02T23:26:41.193Z,10.27
2022-10-02T23:29:31.701Z,9.83
2022-10-02T23:32:05.542Z,11.03
2022-10-02T23:34:40.426Z,9.33
2022-10-02T23:37:18.575Z,10.70
2022-10-02T23:39:55.131Z,10.07
2022-10-02T23:42:28.908Z,9.97
2022-10-02T23:45:06.815Z,11.53
2022-10-02T23:47:48.605Z,10.20
2022-10-02T23:50:23.662Z,10.07
2022-10-02T23:53:07.102Z,10.13
2022-10-02T23:56:14.008Z,10.30
2022-10-02T23:59:04.569Z,9.33
